createdAt,value
2019-02-12T00:02:14.394Z,9.07
2019-02-12T00:04:41.646Z,8.13
2019-02-12T00:07:08.850Z,12.97
2019-02-12T00:09:36.094Z,9.63
2019-02-12T00:12:03.315Z,7.63
2019-02-12T00:14:30.555Z,6.20
2019-02-12T00:16:57.822Z,7.10
2019-02-12T00:19:25.028Z,8.07
2019-02-12T00:21:52.294Z,13.53
2019-02-12T00:24:19.500Z,9.30
2019-02-12T00:26:46.716Z,9.90
2019-02-12T00:29:13.979Z,8.93
2019-02-12T00:31:41.196Z,9.57
2019-02-12T00:34:08.412Z,8.43
2019-02-12T00:36:35.666Z,7.90
2019-02-12T00:39:04.107Z,5.50
2019-02-12T00:41:31.319Z,8.33
2019-02-12T00:43:58.558Z,5.00
2019-02-12T00:46:25.772Z,2.67
2019-02-12T00:48:53.001Z,2.53
2019-02-12T00:51:20.267Z,6.40
2019-02-12T00:53:47.547Z,4.60
2019-02-12T00:56:14.781Z,5.53
2019-02-12T00:58:42.040Z,4.33
2019-02-12T01:01:09.269Z,3.27
2019-02-12T01:03:36.504Z,5.47
2019-02-12T01:06:03.913Z,5.33
2019-02-12T01:08:31.209Z,6.47
2019-02-12T01:10:58.448Z,5.63
2019-02-12T01:13:25.752Z,5.43
2019-02-12T01:15:52.948Z,7.77
2019-02-12T01:18:20.204Z,4.33
2019-02-12T01:20:47.478Z,8.47
2019-02-12T01:23:14.705Z,6.17
2019-02-12T01:25:41.933Z,9.27
2019-02-12T01:28:09.167Z,5.93
2019-02-12T01:30:36.515Z,8.27
2019-02-12T01:33:03.737Z,9.30
2019-02-12T01:35:31.007Z,8.97
2019-02-12T01:37:58.232Z,7.93
2019-02-12T01:40:25.437Z,7.33
2019-02-12T01:42:52.698Z,10.30
2019-02-12T01:45:20.028Z,9.50
2019-02-12T01:47:47.238Z,7.03
2019-02-12T01:50:14.485Z,10.87
2019-02-12T01:52:41.786Z,9.67
2019-02-12T01:55:08.987Z,16.47
2019-02-12T01:57:36.237Z,9.63
2019-02-12T02:00:04.467Z,12.93
2019-02-12T02:02:31.674Z,11.97
2019-02-12T02:04:58.919Z,7.80
2019-02-12T02:07:26.162Z,6.63
2019-02-12T02:09:53.481Z,4.53
2019-02-12T02:12:20.757Z,6.80
2019-02-12T02:14:48.004Z,6.47
2019-02-12T02:17:15.209Z,6.17
2019-02-12T02:19:42.505Z,6.67
2019-02-12T02:22:09.717Z,6.73
2019-02-12T02:24:36.949Z,7.37
2019-02-12T02:27:04.221Z,9.47
2019-02-12T02:29:31.448Z,8.27
2019-02-12T02:31:58.668Z,8.07
2019-02-12T02:34:25.953Z,9.40
2019-02-12T02:36:53.181Z,6.93
2019-02-12T02:39:20.389Z,10.60
2019-02-12T02:41:47.634Z,6.00
2019-02-12T02:44:14.875Z,6.07
2019-02-12T02:46:42.123Z,6.57
2019-02-12T02:49:09.346Z,3.07
2019-02-12T02:51:36.646Z,4.13
2019-02-12T02:54:03.905Z,8.30
2019-02-12T02:56:31.108Z,10.00
2019-02-12T02:58:58.328Z,10.30
2019-02-12T03:01:25.602Z,8.93
2019-02-12T03:03:52.812Z,6.60
2019-02-12T03:06:20.056Z,5.70
2019-02-12T03:08:47.339Z,7.43
2019-02-12T03:11:14.553Z,8.90
2019-02-12T03:13:41.757Z,7.83
2019-02-12T03:16:09.027Z,8.93
2019-02-12T03:18:36.273Z,9.03
2019-02-12T03:21:03.497Z,8.17
2019-02-12T03:23:30.759Z,8.03
2019-02-12T03:25:57.976Z,9.63
2019-02-12T03:28:25.252Z,9.60
2019-02-12T03:30:52.479Z,9.17
2019-02-12T03:33:21.544Z,10.00
2019-02-12T03:35:48.820Z,12.90
2019-02-12T03:38:16.079Z,11.83
2019-02-12T03:40:43.353Z,8.00
2019-02-12T03:43:10.560Z,7.47
2019-02-12T03:45:37.798Z,7.20
2019-02-12T03:48:05.029Z,10.60
2019-02-12T03:50:32.244Z,13.13
2019-02-12T03:52:59.588Z,14.33
2019-02-12T03:55:26.896Z,12.50
2019-02-12T03:57:54.098Z,9.30
2019-02-12T04:00:21.336Z,9.10
2019-02-12T04:03:07.976Z,10.30
2019-02-12T04:05:36.439Z,8.30
2019-02-12T04:08:03.787Z,7.73
2019-02-12T04:10:31.023Z,8.37
2019-02-12T04:12:58.380Z,11.60
2019-02-12T04:15:25.578Z,10.30
2019-02-12T04:17:52.773Z,13.30
2019-02-12T04:20:20.041Z,8.30
2019-02-12T04:22:47.266Z,9.20
2019-02-12T04:25:14.477Z,11.20
2019-02-12T04:27:41.723Z,9.67
2019-02-12T04:30:09.129Z,12.93
2019-02-12T04:32:36.373Z,10.87
2019-02-12T04:35:03.771Z,8.00
2019-02-12T04:37:30.967Z,13.43
2019-02-12T04:39:58.253Z,7.57
2019-02-12T04:42:25.455Z,8.77
2019-02-12T04:44:54.285Z,7.90
2019-02-12T04:47:21.743Z,12.90
2019-02-12T04:49:48.952Z,11.20
2019-02-12T04:52:16.207Z,12.10
2019-02-12T04:54:43.507Z,11.17
2019-02-12T04:57:10.718Z,8.50
2019-02-12T04:59:37.962Z,9.67
2019-02-12T05:02:05.197Z,9.33
2019-02-12T05:04:32.409Z,13.87
2019-02-12T05:06:59.681Z,11.10
2019-02-12T05:09:27.208Z,12.40
2019-02-12T05:11:56.928Z,23.87
2019-02-12T05:14:24.202Z,12.70
2019-02-12T05:16:51.424Z,13.87
2019-02-12T05:19:18.645Z,10.77
2019-02-12T05:21:45.917Z,14.37
2019-02-12T05:24:13.109Z,10.90
2019-02-12T05:26:40.318Z,11.77
2019-02-12T05:29:07.599Z,14.40
2019-02-12T05:31:34.816Z,10.03
2019-02-12T05:34:02.010Z,8.90
2019-02-12T05:36:29.273Z,6.37
2019-02-12T05:38:56.498Z,11.77
2019-02-12T05:41:23.712Z,8.73
2019-02-12T05:43:50.964Z,8.33
2019-02-12T05:46:18.179Z,7.47
2019-02-12T05:48:45.391Z,8.43
2019-02-12T05:51:12.697Z,9.57
2019-02-12T05:53:39.984Z,8.73
2019-02-12T05:56:07.198Z,9.60
2019-02-12T05:58:34.465Z,10.37
2019-02-12T06:01:01.683Z,7.70
2019-02-12T06:03:28.889Z,10.17
2019-02-12T06:05:56.139Z,9.03
2019-02-12T06:08:23.360Z,8.93
2019-02-12T06:10:50.659Z,5.77
2019-02-12T06:13:17.904Z,9.63
2019-02-12T06:15:45.120Z,11.97
2019-02-12T06:18:12.368Z,11.60
2019-02-12T06:20:39.588Z,11.97
2019-02-12T06:23:06.818Z,5.87
2019-02-12T06:25:34.088Z,17.13
2019-02-12T06:28:01.323Z,11.67
2019-02-12T06:30:28.551Z,8.93
2019-02-12T06:32:55.778Z,8.57
2019-02-12T06:35:22.996Z,11.83
2019-02-12T06:37:50.263Z,13.17
2019-02-12T06:40:17.471Z,13.40
2019-02-12T06:42:44.669Z,11.93
2019-02-12T06:45:12.112Z,14.47
2019-02-12T06:47:39.346Z,10.63
2019-02-12T06:50:07.880Z,12.13
2019-02-12T06:52:39.335Z,14.73
2019-02-12T06:55:07.332Z,19.70
2019-02-12T06:57:34.520Z,22.03
2019-02-12T07:00:01.772Z,14.93
2019-02-12T07:03:05.911Z,14.43
2019-02-12T07:05:33.159Z,14.40
2019-02-12T07:08:36.684Z,9.87
2019-02-12T07:11:22.130Z,16.07
2019-02-12T07:14:04.121Z,9.33
2019-02-12T07:17:21.569Z,11.47
2019-02-12T07:20:11.915Z,15.87
2019-02-12T07:23:33.265Z,11.73
2019-02-12T07:26:27.733Z,10.73
2019-02-12T07:29:34.428Z,9.83
2019-02-12T07:32:46.378Z,9.10
2019-02-12T07:35:49.990Z,10.33
2019-02-12T07:38:55.634Z,11.63
2019-02-12T07:42:02.814Z,9.43
2019-02-12T07:44:50.413Z,8.80
2019-02-12T07:48:02.242Z,11.30
2019-02-12T07:50:45.058Z,13.10
2019-02-12T07:54:05.246Z,7.00
2019-02-12T07:57:21.466Z,10.07
2019-02-12T08:00:09.864Z,9.73
2019-02-12T08:03:23.745Z,10.07
2019-02-12T08:06:12.052Z,9.23
2019-02-12T08:09:19.824Z,11.17
2019-02-12T08:12:12.178Z,9.27
2019-02-12T08:15:01.225Z,9.73
2019-02-12T08:18:28.691Z,11.57
2019-02-12T08:21:40.348Z,8.70
2019-02-12T08:24:34.850Z,12.40
2019-02-12T08:27:26.473Z,9.83
2019-02-12T08:30:17.500Z,7.90
2019-02-12T08:33:16.767Z,7.97
2019-02-12T08:36:16.006Z,7.87
2019-02-12T08:39:25.174Z,12.40
2019-02-12T08:42:41.767Z,4.97
2019-02-12T08:45:59.802Z,8.13
2019-02-12T08:49:08.372Z,9.10
2019-02-12T08:52:00.248Z,10.10
2019-02-12T08:54:53.974Z,12.13
2019-02-12T08:57:43.761Z,7.10
2019-02-12T09:00:27.690Z,10.90
2019-02-12T09:03:31.386Z,11.30
2019-02-12T09:06:11.225Z,16.57
2019-02-12T09:08:56.494Z,10.00
2019-02-12T09:11:59.783Z,7.43
2019-02-12T09:15:02.176Z,8.93
2019-02-12T09:18:01.106Z,11.50
2019-02-12T09:21:10.004Z,10.80
2019-02-12T09:23:59.884Z,10.33
2019-02-12T09:27:06.869Z,11.27
2019-02-12T09:30:12.216Z,11.27
2019-02-12T09:33:10.372Z,14.47
2019-02-12T09:36:12.709Z,10.40
2019-02-12T09:39:30.917Z,10.73
2019-02-12T09:43:04.252Z,9.73
2019-02-12T09:46:01.462Z,10.20
2019-02-12T09:48:37.141Z,11.30
2019-02-12T09:51:45.733Z,11.77
2019-02-12T09:54:38.862Z,12.40
2019-02-12T09:57:56.394Z,11.47
2019-02-12T10:00:31.719Z,9.60
2019-02-12T10:03:36.604Z,8.10
2019-02-12T10:06:51.472Z,13.17
2019-02-12T10:09:44.025Z,14.00
2019-02-12T10:13:05.083Z,13.83
2019-02-12T10:16:08.830Z,15.63
2019-02-12T10:19:29.504Z,10.70
2019-02-12T10:22:43.904Z,9.93
2019-02-12T10:25:14.778Z,15.33
2019-02-12T10:28:20.886Z,9.07
2019-02-12T10:31:32.945Z,13.20
2019-02-12T10:34:00.180Z,13.50
2019-02-12T10:36:27.418Z,12.87
2019-02-12T10:38:54.690Z,15.87
2019-02-12T10:41:21.900Z,9.93
2019-02-12T10:43:49.168Z,10.87
2019-02-12T10:46:16.399Z,8.30
2019-02-12T10:48:43.618Z,10.50
2019-02-12T10:51:10.868Z,6.17
2019-02-12T10:53:38.213Z,9.97
2019-02-12T10:56:05.486Z,13.13
2019-02-12T10:58:32.724Z,12.13
2019-02-12T11:00:59.949Z,8.53
2019-02-12T11:03:27.255Z,12.93
2019-02-12T11:05:54.568Z,11.60
2019-02-12T11:08:21.814Z,13.13
2019-02-12T11:10:49.028Z,10.37
2019-02-12T11:13:16.279Z,16.53
2019-02-12T11:15:43.502Z,12.50
2019-02-12T11:18:10.754Z,10.47
2019-02-12T11:20:38.019Z,10.80
2019-02-12T11:23:05.248Z,15.23
2019-02-12T11:25:32.497Z,12.03
2019-02-12T11:27:59.741Z,17.37
2019-02-12T11:30:26.983Z,12.70
2019-02-12T11:32:54.249Z,12.90
2019-02-12T11:35:21.494Z,14.27
2019-02-12T11:37:48.800Z,18.33
2019-02-12T11:40:16.028Z,13.43
2019-02-12T11:42:43.265Z,13.20
2019-02-12T11:45:10.695Z,11.40
2019-02-12T11:47:37.879Z,11.10
2019-02-12T11:50:05.554Z,13.30
2019-02-12T11:52:32.815Z,13.87
2019-02-12T11:55:00.097Z,14.70
2019-02-12T11:57:27.533Z,15.80
2019-02-12T11:59:54.799Z,11.27
2019-02-12T12:02:25.237Z,12.17
2019-02-12T12:04:52.463Z,12.13
2019-02-12T12:07:19.792Z,17.27
2019-02-12T12:09:47.369Z,20.97
2019-02-12T12:12:15.141Z,18.80
2019-02-12T12:14:42.438Z,17.07
2019-02-12T12:17:09.722Z,11.30
2019-02-12T12:19:37.063Z,14.43
2019-02-12T12:22:04.454Z,15.77
2019-02-12T12:24:31.722Z,18.90
2019-02-12T12:26:58.983Z,19.83
2019-02-12T12:29:26.245Z,19.67
2019-02-12T12:31:53.483Z,11.47
2019-02-12T12:34:20.692Z,18.77
2019-02-12T12:36:47.948Z,16.87
2019-02-12T12:39:15.164Z,16.70
2019-02-12T12:41:42.804Z,16.23
2019-02-12T12:44:10.184Z,18.83
2019-02-12T12:46:37.423Z,14.50
2019-02-12T12:49:04.692Z,15.63
2019-02-12T12:51:31.919Z,17.10
2019-02-12T12:53:59.269Z,14.30
2019-02-12T12:56:26.531Z,17.83
2019-02-12T12:58:53.755Z,16.13
2019-02-12T13:01:21.030Z,17.27
2019-02-12T13:03:48.280Z,16.60
2019-02-12T13:06:15.540Z,8.67
2019-02-12T13:08:42.818Z,13.07
2019-02-12T13:11:10.051Z,10.93
2019-02-12T13:13:37.320Z,10.43
2019-02-12T13:16:04.588Z,10.53
2019-02-12T13:18:31.813Z,10.57
2019-02-12T13:20:59.031Z,10.07
2019-02-12T13:23:26.301Z,6.00
2019-02-12T13:25:53.505Z,10.73
2019-02-12T13:28:20.724Z,7.87
2019-02-12T13:30:47.988Z,5.93
2019-02-12T13:33:15.218Z,9.10
2019-02-12T13:35:42.434Z,8.67
2019-02-12T13:38:09.693Z,6.53
2019-02-12T13:40:36.927Z,5.10
2019-02-12T13:43:05.167Z,10.90
2019-02-12T13:45:32.462Z,7.97
2019-02-12T13:47:59.717Z,7.10
2019-02-12T13:50:26.962Z,10.53
2019-02-12T13:52:54.224Z,8.73
2019-02-12T13:55:22.699Z,7.90
2019-02-12T13:57:50.132Z,7.77
2019-02-12T14:00:17.460Z,13.90
2019-02-12T14:02:44.715Z,8.77
2019-02-12T14:05:13.970Z,9.67
2019-02-12T14:07:41.186Z,11.40
2019-02-12T14:10:08.447Z,10.67
2019-02-12T14:12:35.681Z,10.67
2019-02-12T14:15:03.288Z,8.70
2019-02-12T14:17:30.570Z,7.27
2019-02-12T14:19:57.804Z,7.23
2019-02-12T14:22:25.076Z,7.00
2019-02-12T14:24:52.352Z,10.10
2019-02-12T14:27:19.675Z,8.40
2019-02-12T14:29:46.893Z,9.97
2019-02-12T14:32:14.115Z,5.93
2019-02-12T14:34:41.415Z,6.63
2019-02-12T14:37:08.685Z,8.53
2019-02-12T14:39:35.909Z,6.53
2019-02-12T14:42:03.226Z,10.33
2019-02-12T14:44:30.464Z,7.27
2019-02-12T14:46:57.774Z,6.20
2019-02-12T14:49:25.072Z,7.63
2019-02-12T14:51:52.294Z,7.63
2019-02-12T14:54:19.533Z,7.87
2019-02-12T14:56:46.799Z,7.47
2019-02-12T14:59:14.053Z,6.60
2019-02-12T15:01:41.283Z,7.80
2019-02-12T15:04:08.557Z,8.17
2019-02-12T15:06:35.830Z,8.83
2019-02-12T15:09:04.387Z,7.63
2019-02-12T15:11:31.618Z,9.10
2019-02-12T15:13:58.872Z,4.97
2019-02-12T15:16:26.092Z,9.13
2019-02-12T15:18:53.308Z,8.03
2019-02-12T15:21:20.593Z,5.77
2019-02-12T15:23:47.836Z,6.07
2019-02-12T15:26:15.100Z,6.97
2019-02-12T15:28:42.351Z,5.73
2019-02-12T15:31:09.594Z,7.03
2019-02-12T15:33:36.819Z,8.73
2019-02-12T15:36:04.076Z,8.00
2019-02-12T15:38:31.301Z,4.87
2019-02-12T15:40:58.517Z,12.90
2019-02-12T15:43:25.789Z,6.73
2019-02-12T15:45:53.495Z,5.20
2019-02-12T15:48:20.823Z,9.33
2019-02-12T15:50:48.045Z,8.37
2019-02-12T15:53:15.288Z,5.73
2019-02-12T15:55:50.954Z,4.67
2019-02-12T15:58:11.677Z,3.93
2019-02-12T16:00:39.495Z,4.20
2019-02-12T16:03:08.083Z,6.30
2019-02-12T16:05:35.365Z,9.83
2019-02-12T16:08:02.606Z,9.33
2019-02-12T16:10:29.859Z,7.40
2019-02-12T16:12:57.078Z,7.63
2019-02-12T16:15:24.837Z,9.10
2019-02-12T16:17:52.186Z,7.27
2019-02-12T16:20:19.432Z,9.93
2019-02-12T16:22:46.640Z,9.10
2019-02-12T16:25:15.354Z,11.30
2019-02-12T16:27:42.899Z,8.60
2019-02-12T16:30:12.440Z,9.87
2019-02-12T16:32:39.661Z,8.63
2019-02-12T16:35:08.115Z,6.77
2019-02-12T16:37:35.360Z,6.90
2019-02-12T16:40:02.588Z,4.97
2019-02-12T16:42:29.855Z,6.27
2019-02-12T16:44:57.132Z,7.20
2019-02-12T16:47:24.441Z,5.90
2019-02-12T16:49:51.628Z,9.73
2019-02-12T16:52:20.927Z,6.83
2019-02-12T16:54:47.999Z,5.60
2019-02-12T16:57:15.333Z,7.33
2019-02-12T16:59:42.586Z,9.40
2019-02-12T17:02:09.852Z,10.07
2019-02-12T17:04:37.163Z,7.20
2019-02-12T17:07:04.428Z,6.80
2019-02-12T17:09:31.651Z,6.70
2019-02-12T17:11:58.886Z,5.97
2019-02-12T17:14:26.149Z,7.70
2019-02-12T17:16:53.375Z,8.13
2019-02-12T17:19:20.597Z,8.07
2019-02-12T17:21:49.188Z,4.07
2019-02-12T17:24:16.563Z,8.10
2019-02-12T17:26:44.689Z,6.40
2019-02-12T17:29:11.941Z,6.23
2019-02-12T17:31:39.155Z,7.97
2019-02-12T17:34:06.498Z,5.03
2019-02-12T17:36:33.771Z,6.23
2019-02-12T17:39:01.004Z,11.27
2019-02-12T17:41:28.252Z,6.73
2019-02-12T17:43:55.470Z,8.17
2019-02-12T17:46:22.714Z,6.10
2019-02-12T17:48:49.970Z,5.40
2019-02-12T17:51:17.186Z,8.20
2019-02-12T17:53:44.606Z,6.47
2019-02-12T17:56:11.873Z,11.43
2019-02-12T17:58:39.108Z,8.67
2019-02-12T18:01:06.330Z,12.13
2019-02-12T18:03:33.575Z,9.80
2019-02-12T18:06:00.900Z,8.90
2019-02-12T18:08:28.119Z,9.03
2019-02-12T18:10:55.367Z,8.37
2019-02-12T18:13:23.326Z,8.83
2019-02-12T18:15:50.852Z,7.27
2019-02-12T18:18:18.058Z,10.27
2019-02-12T18:20:45.274Z,11.27
2019-02-12T18:23:12.527Z,9.60
2019-02-12T18:25:39.767Z,9.00
2019-02-12T18:28:07.389Z,6.07
2019-02-12T18:30:35.350Z,13.07
2019-02-12T18:33:02.551Z,9.70
2019-02-12T18:35:29.776Z,11.73
2019-02-12T18:37:57.057Z,10.07
2019-02-12T18:40:24.274Z,15.00
2019-02-12T18:42:51.485Z,11.53
2019-02-12T18:45:18.770Z,15.90
2019-02-12T18:47:46.035Z,11.17
2019-02-12T18:50:13.248Z,16.90
2019-02-12T18:52:40.561Z,14.70
2019-02-12T18:55:08.772Z,14.27
2019-02-12T18:57:36.030Z,8.13
2019-02-12T19:00:04.240Z,14.80
2019-02-12T19:02:31.497Z,14.33
2019-02-12T19:04:58.708Z,19.43
2019-02-12T19:07:25.962Z,20.73
2019-02-12T19:09:53.187Z,18.50
2019-02-12T19:12:20.414Z,15.97
2019-02-12T19:14:47.662Z,22.70
2019-02-12T19:17:14.886Z,16.83
2019-02-12T19:19:42.115Z,16.20
2019-02-12T19:22:11.795Z,23.10
2019-02-12T19:24:39.007Z,20.83
2019-02-12T19:27:06.238Z,14.83
2019-02-12T19:29:33.467Z,16.50
2019-02-12T19:32:00.685Z,16.17
2019-02-12T19:34:27.960Z,20.97
2019-02-12T19:36:55.209Z,19.23
2019-02-12T19:39:22.423Z,15.70
2019-02-12T19:41:49.674Z,17.50
2019-02-12T19:44:16.913Z,18.20
2019-02-12T19:46:44.206Z,19.03
2019-02-12T19:49:11.451Z,17.37
2019-02-12T19:51:38.656Z,21.43
2019-02-12T19:54:05.942Z,23.23
2019-02-12T19:56:33.211Z,18.57
2019-02-12T19:59:00.436Z,17.17
2019-02-12T20:01:27.738Z,16.73
2019-02-12T20:03:54.972Z,21.63
2019-02-12T20:06:22.204Z,21.97
2019-02-12T20:08:49.473Z,22.33
2019-02-12T20:11:16.731Z,19.67
2019-02-12T20:13:43.937Z,23.77
2019-02-12T20:16:11.156Z,19.47
2019-02-12T20:18:38.421Z,22.03
2019-02-12T20:21:05.635Z,13.53
2019-02-12T20:23:32.858Z,17.57
2019-02-12T20:26:00.098Z,19.70
2019-02-12T20:28:27.324Z,22.83
2019-02-12T20:30:54.601Z,16.30
2019-02-12T20:33:21.826Z,16.23
2019-02-12T20:35:49.041Z,23.47
2019-02-12T20:38:16.298Z,22.90
2019-02-12T20:40:43.562Z,23.83
2019-02-12T20:43:10.788Z,20.13
2019-02-12T20:45:38.016Z,20.87
2019-02-12T20:48:05.270Z,20.83
2019-02-12T20:50:32.479Z,15.77
2019-02-12T20:52:59.768Z,23.23
2019-02-12T20:55:27.048Z,23.83
2019-02-12T20:57:54.338Z,19.43
2019-02-12T21:00:21.626Z,23.23
2019-02-12T21:02:48.946Z,22.63
2019-02-12T21:05:16.283Z,25.43
2019-02-12T21:07:43.560Z,18.93
2019-02-12T21:10:12.689Z,27.50
2019-02-12T21:12:39.956Z,25.87
2019-02-12T21:15:09.491Z,25.33
2019-02-12T21:17:36.706Z,18.90
2019-02-12T21:20:04.480Z,18.93
2019-02-12T21:22:31.743Z,20.90
2019-02-12T21:24:59.048Z,17.57
2019-02-12T21:27:26.265Z,22.43
2019-02-12T21:29:53.480Z,22.23
2019-02-12T21:32:20.734Z,20.83
2019-02-12T21:34:47.971Z,16.63
2019-02-12T21:37:15.183Z,16.63
2019-02-12T21:39:42.434Z,21.00
2019-02-12T21:42:09.667Z,21.03
2019-02-12T21:44:36.874Z,20.87
2019-02-12T21:47:04.130Z,17.00
2019-02-12T21:49:31.357Z,20.10
2019-02-12T21:51:58.564Z,28.60
2019-02-12T21:54:25.830Z,19.20
2019-02-12T21:56:53.103Z,16.13
2019-02-12T21:59:20.471Z,21.13
2019-02-12T22:01:47.702Z,22.83
2019-02-12T22:04:14.977Z,24.63
2019-02-12T22:06:42.203Z,16.70
2019-02-12T22:09:09.527Z,18.70
2019-02-12T22:11:36.779Z,20.23
2019-02-12T22:14:03.988Z,20.47
2019-02-12T22:16:31.198Z,24.47
2019-02-12T22:18:58.458Z,21.00
2019-02-12T22:21:25.673Z,23.47
2019-02-12T22:23:52.903Z,22.30
2019-02-12T22:26:20.107Z,22.93
2019-02-12T22:28:47.367Z,17.77
2019-02-12T22:31:14.580Z,24.37
2019-02-12T22:33:41.765Z,17.70
2019-02-12T22:36:09.023Z,20.03
2019-02-12T22:38:36.261Z,16.00
2019-02-12T22:41:03.872Z,19.13
2019-02-12T22:43:31.256Z,16.50
2019-02-12T22:45:58.481Z,18.17
2019-02-12T22:48:25.692Z,19.63
2019-02-12T22:50:52.930Z,18.87
2019-02-12T22:53:20.149Z,20.23
2019-02-12T22:55:47.397Z,22.23
2019-02-12T22:58:14.691Z,16.40
2019-02-12T23:00:55.017Z,13.60
2019-02-12T23:03:22.565Z,18.87
2019-02-12T23:05:49.821Z,18.03
2019-02-12T23:08:17.063Z,25.53
2019-02-12T23:10:44.380Z,16.10
2019-02-12T23:13:11.727Z,12.93
2019-02-12T23:15:38.964Z,21.60
2019-02-12T23:18:06.194Z,19.00
2019-02-12T23:20:33.453Z,16.60
2019-02-12T23:23:00.717Z,15.33
2019-02-12T23:25:27.934Z,19.90
2019-02-12T23:27:57.674Z,16.83
2019-02-12T23:30:24.336Z,14.27
2019-02-12T23:32:51.557Z,17.10
2019-02-12T23:35:18.754Z,18.57
2019-02-12T23:37:46.098Z,14.97
2019-02-12T23:40:13.276Z,15.80
2019-02-12T23:42:40.510Z,22.67
2019-02-12T23:45:08.015Z,17.53
2019-02-12T23:47:35.222Z,17.07
2019-02-12T23:50:02.487Z,18.10
2019-02-12T23:52:29.729Z,18.03
2019-02-12T23:54:56.952Z,14.93
2019-02-12T23:57:24.205Z,15.70
2019-02-12T23:59:51.456Z,17.27
